Flag for Taiwan

Past Weather in 24°13'21"N, 120°39'16"E, Taiwan — Yesterday and Last 2 Weeks

Currently: 90 °F. Passing clouds. (Weather station: Chiang Kai Shek, Taiwan). See more current weather

Past Weather in 24°13'21"N, 120°39'16"E — Graph

°F

24°13'21"N, 120°39'16"E Temperature Yesterday

Maximum temperature yesterday: 95 °F (at 10:00 am)
Minimum temperature yesterday: 77 °F (at 4:00 am)
Average temperature yesterday: 84 °F

High & Low Weather Summary for the Past Weeks

 TemperatureHumidityPressure
High95 °F (Sep 27, 12:00 pm)100% (Sep 26, 5:30 am)29.95 "Hg (Sep 26, 5:30 am)
Low70 °F (Sep 23, 2:00 am)49% (Sep 22, 10:30 am)29.62 "Hg (Sep 18, 3:30 pm)
Average82 °F74%29.84 "Hg
* Reported Sep 18 10:00 am — Oct 3 10:30 am, 24°13'21"N, 120°39'16"E. Weather by CustomWeather, © 2022

Note: Actual official high and low records may vary slightly from our data, if they occured in-between our weather recording intervals... More about our weather records

24°13'21"N, 120°39'16"E Weather History for the Previous 24 Hours

Scroll right to see more
 ConditionsComfort  
Time TempWeatherWind HumidityBarometerVisibility
10:30 am
Mon, Oct 3
90 °FPassing clouds.8 mph67%29.95 "Hg6 mi
10:13 am90 °FPassing clouds.7 mph67%29.95 "Hg6 mi
9:30 am91 °FPassing clouds.2 mph67%29.95 "HgN/A
9:00 am91 °FPassing clouds.3 mph67%29.95 "HgN/A
7:30 am84 °FPassing clouds.3 mph84%29.95 "HgN/A
7:00 am81 °FPassing clouds.5 mph94%29.92 "HgN/A
6:30 am79 °FPassing clouds.5 mph94%29.92 "HgN/A
6:00 am79 °FPassing clouds.5 mph94%29.92 "Hg4 mi
5:30 am79 °FFog.5 mph94%29.92 "Hg3 mi
4:30 am81 °FFog.6 mph94%29.89 "Hg3 mi
4:00 am81 °FFog.7 mph94%29.89 "Hg3 mi
3:30 am81 °FFog.6 mph94%29.89 "Hg3 mi
3:06 am81 °FFog.6 mph94%29.89 "Hg3 mi
2:30 am81 °FPassing clouds.7 mph94%29.89 "Hg4 mi
2:00 am81 °FPassing clouds.6 mph89%29.89 "Hg5 mi
1:30 am81 °FPassing clouds.3 mph89%29.89 "HgN/A
1:00 am81 °FPassing clouds.3 mph89%29.89 "HgN/A
12:30 am81 °FPassing clouds.3 mph89%29.92 "HgN/A
12:00 am82 °FPassing clouds.5 mph84%29.92 "HgN/A
11:30 pm
Sun, Oct 2
84 °FPassing clouds.6 mph79%29.92 "HgN/A
11:00 pm84 °FPassing clouds.6 mph79%29.92 "HgN/A
10:30 pm84 °FPassing clouds.3 mph84%29.92 "HgN/A
10:00 pm79 °FPassing clouds.3 mph94%29.92 "HgN/A
9:30 pm81 °FPassing clouds.2 mph89%29.92 "HgN/A
9:00 pm81 °FPassing clouds.2 mph94%29.92 "HgN/A
8:30 pm81 °FPassing clouds.2 mph94%29.92 "HgN/A
8:00 pm82 °FPassing clouds.2 mph89%29.92 "HgN/A
7:30 pm81 °FPassing clouds.1 mph89%29.92 "HgN/A
7:00 pm81 °FPassing clouds.2 mph89%29.89 "HgN/A
6:30 pm82 °FPassing clouds.3 mph84%29.89 "HgN/A
6:00 pm82 °FPassing clouds.3 mph84%29.89 "HgN/A
5:30 pm84 °FScattered clouds.5 mph79%29.89 "HgN/A
5:00 pm86 °FScattered clouds.3 mph75%29.89 "HgN/A
4:30 pm88 °FScattered clouds.3 mph70%29.89 "HgN/A
3:30 pm88 °FPassing clouds.8 mph66%29.89 "HgN/A
3:00 pm90 °FPassing clouds.10 mph63%29.89 "HgN/A
2:30 pm90 °FPassing clouds.10 mph63%29.89 "HgN/A
2:00 pm88 °FPassing clouds.10 mph66%29.89 "HgN/A
1:00 pm88 °FPassing clouds.10 mph70%29.92 "HgN/A
12:30 pm90 °FPassing clouds.10 mph67%29.92 "HgN/A
12:00 pm90 °FPassing clouds.8 mph67%29.92 "HgN/A
Weather by CustomWeather, © 2022

See weather overview